Time;durP1;ratioP1;P1;durP2;ratioP2;P2;SDS_P1;SDS_P2;PMS_P1;PMS_P2;Temp;Humidity;BMP_temperature;BMP_pressure;BME280_temperature;BME280_humidity;BME280_pressure;Samples;Min_cycle;Max_cycle;Signal;HPM_P1;HPM_P2
2022/07/10 00:00:27;;;;;;;3.40;1.42;;;24.50;54.90;;;;;;5092802;28;20040;-68
2022/07/10 00:03:32;;;;;;;5.22;1.30;;;24.50;55.10;;;;;;5092936;28;20063;-69
2022/07/10 00:06:35;;;;;;;5.95;1.00;;;24.30;55.70;;;;;;5092803;28;20051;-69
2022/07/10 00:09:39;;;;;;;3.70;1.05;;;24.20;56.10;;;;;;5093013;28;20403;-68
2022/07/10 00:12:44;;;;;;;3.55;1.30;;;24.10;56.20;;;;;;5092662;28;20051;-68
2022/07/10 00:15:48;;;;;;;3.17;1.30;;;24.10;56.60;;;;;;5092844;28;20044;-68
2022/07/10 00:18:52;;;;;;;6.30;1.15;;;24.10;56.50;;;;;;5092869;28;20043;-68
2022/07/10 00:21:56;;;;;;;2.97;1.50;;;24.10;56.40;;;;;;5091906;28;20051;-68
2022/07/10 00:25:05;;;;;;;2.40;1.00;;;24.20;56.60;;;;;;5092678;28;20028;-68
2022/07/10 00:28:09;;;;;;;6.32;1.45;;;24.10;56.50;;;;;;5092729;28;20040;-68
2022/07/10 00:31:12;;;;;;;4.47;1.10;;;24.10;56.60;;;;;;5092384;28;20044;-68
2022/07/10 00:34:17;;;;;;;2.88;1.20;;;24.20;56.60;;;;;;5092089;28;20039;-68
2022/07/10 00:37:21;;;;;;;4.30;1.10;;;24.30;56.60;;;;;;5092187;28;20039;-69
2022/07/10 00:40:25;;;;;;;4.85;1.15;;;24.30;56.40;;;;;;5092131;28;20510;-69
2022/07/10 00:43:29;;;;;;;4.10;1.00;;;24.40;56.70;;;;;;5092164;28;20044;-69
2022/07/10 00:46:33;;;;;;;5.47;1.02;;;24.30;56.70;;;;;;5092077;28;20210;-68
2022/07/10 00:49:38;;;;;;;3.95;1.10;;;24.30;56.60;;;;;;5091673;28;20047;-67
2022/07/10 00:52:45;;;;;;;2.50;1.10;;;24.30;56.40;;;;;;5092051;28;20044;-67
2022/07/10 00:55:49;;;;;;;6.15;1.10;;;24.30;56.70;;;;;;5092033;28;20043;-67
2022/07/10 00:58:54;;;;;;;4.90;1.10;;;24.20;56.60;;;;;;5092175;28;20073;-68
2022/07/10 01:01:58;;;;;;;3.92;1.10;;;24.20;56.60;;;;;;5091734;28;20507;-67
2022/07/10 01:05:02;;;;;;;8.25;1.75;;;24.20;56.80;;;;;;5091682;28;20032;-68
2022/07/10 01:08:06;;;;;;;5.28;1.15;;;24.20;56.90;;;;;;5091737;28;20052;-68
2022/07/10 01:11:11;;;;;;;5.38;1.35;;;24.20;57.10;;;;;;5091829;28;20035;-69
2022/07/10 01:14:18;;;;;;;3.55;1.20;;;24.10;57.10;;;;;;5092038;28;20526;-68
2022/07/10 01:17:22;;;;;;;10.63;1.88;;;24.10;57.10;;;;;;5079324;28;20040;-67
2022/07/10 01:20:33;;;;;;;3.03;1.10;;;24.10;57.40;;;;;;5091541;28;20051;-68
2022/07/10 01:23:37;;;;;;;6.15;1.40;;;24.00;57.60;;;;;;5091225;28;20043;-69
2022/07/10 01:26:42;;;;;;;3.90;1.00;;;23.90;57.50;;;;;;5091427;28;20052;-69
2022/07/10 01:29:47;;;;;;;7.30;1.08;;;24.00;57.60;;;;;;5091626;28;20110;-69
2022/07/10 01:32:54;;;;;;;3.03;1.27;;;24.00;57.80;;;;;;5091658;28;20047;-68
2022/07/10 01:35:58;;;;;;;2.35;1.00;;;24.00;57.90;;;;;;5091927;28;20055;-68
2022/07/10 01:39:03;;;;;;;4.40;1.17;;;24.00;57.90;;;;;;5091672;28;20039;-67
2022/07/10 01:42:07;;;;;;;4.93;1.27;;;23.90;57.90;;;;;;5091456;28;20507;-69
2022/07/10 01:45:11;;;;;;;6.38;1.15;;;23.80;58.10;;;;;;5091538;28;20044;-69
2022/07/10 01:48:15;;;;;;;4.65;1.20;;;23.90;57.70;;;;;;5091150;28;20511;-69
2022/07/10 01:51:20;;;;;;;2.45;1.05;;;23.90;57.70;;;;;;5090909;28;20055;-69
2022/07/10 01:54:24;;;;;;;2.70;1.27;;;23.90;57.80;;;;;;5090930;28;20510;-67
2022/07/10 01:57:29;;;;;;;2.75;1.10;;;23.90;57.80;;;;;;5090827;28;20044;-68
2022/07/10 02:00:33;;;;;;;1.98;1.13;;;24.00;58.00;;;;;;5090993;28;20044;-68
2022/07/10 02:06:59;;;;;;;6.07;1.13;;;23.90;58.00;;;;;;5090791;28;20047;-68
2022/07/10 02:10:04;;;;;;;2.65;1.00;;;24.00;57.90;;;;;;5091049;28;20040;-69
2022/07/10 02:13:09;;;;;;;4.10;1.23;;;24.00;58.00;;;;;;5090797;28;20059;-68
2022/07/10 02:16:14;;;;;;;5.20;1.33;;;24.00;57.70;;;;;;5091032;28;20060;-68
2022/07/10 02:19:17;;;;;;;1.33;0.90;;;23.90;57.70;;;;;;5090801;28;20040;-68
2022/07/10 02:22:21;;;;;;;3.85;1.20;;;23.90;57.80;;;;;;5090834;28;20368;-68
2022/07/10 02:25:25;;;;;;;4.10;0.93;;;23.90;57.90;;;;;;5090797;28;20040;-68
2022/07/10 02:28:30;;;;;;;3.25;1.10;;;23.90;57.90;;;;;;5090897;28;20082;-68
2022/07/10 02:31:34;;;;;;;3.28;1.10;;;23.90;58.20;;;;;;5090680;28;20047;-69
2022/07/10 02:34:38;;;;;;;4.53;1.00;;;23.80;58.10;;;;;;5089723;28;20044;-69
2022/07/10 02:37:42;;;;;;;5.07;1.02;;;23.90;58.30;;;;;;5090566;28;20403;-69
2022/07/10 02:40:46;;;;;;;3.85;1.02;;;23.90;58.50;;;;;;5090245;28;20039;-68
2022/07/10 02:43:53;;;;;;;3.20;1.08;;;23.90;58.30;;;;;;5090841;28;20047;-68
2022/07/10 02:46:57;;;;;;;3.13;1.23;;;23.80;58.40;;;;;;5093196;28;20504;-69
2022/07/10 02:50:03;;;;;;;3.40;0.90;;;23.90;58.50;;;;;;5094199;28;20707;-69
2022/07/10 02:53:08;;;;;;;7.85;1.08;;;23.90;58.50;;;;;;5093362;28;20044;-68
2022/07/10 02:56:11;;;;;;;4.45;1.20;;;23.90;58.50;;;;;;5094584;28;20054;-68
2022/07/10 02:59:16;;;;;;;6.20;1.88;;;23.80;58.70;;;;;;5094490;28;20051;-68
2022/07/10 03:02:20;;;;;;;3.90;1.70;;;23.70;59.10;;;;;;5093306;28;20484;-68
2022/07/10 03:05:24;;;;;;;5.03;1.85;;;23.70;59.20;;;;;;5094174;28;20040;-68
2022/07/10 03:08:29;;;;;;;5.90;1.35;;;23.70;59.00;;;;;;5093072;28;20060;-69
2022/07/10 03:11:33;;;;;;;4.80;1.15;;;23.70;59.10;;;;;;5094103;28;20047;-69
2022/07/10 03:14:37;;;;;;;9.60;1.67;;;23.80;59.00;;;;;;5093120;28;20043;-69
2022/07/10 03:17:41;;;;;;;6.03;1.70;;;23.60;59.70;;;;;;5093879;28;20532;-69
2022/07/10 03:20:45;;;;;;;3.53;1.98;;;23.50;59.40;;;;;;5093696;28;20028;-68
2022/07/10 03:23:50;;;;;;;4.03;1.52;;;23.50;59.40;;;;;;5093700;28;20032;-68
2022/07/10 03:26:54;;;;;;;6.75;1.77;;;23.50;59.20;;;;;;5093855;28;20086;-68
2022/07/10 03:29:57;;;;;;;5.93;1.65;;;23.50;59.50;;;;;;5093928;28;20525;-69
2022/07/10 03:33:03;;;;;;;2.90;1.70;;;23.40;59.70;;;;;;5093820;28;20044;-68
2022/07/10 03:36:07;;;;;;;4.93;1.55;;;23.30;59.90;;;;;;5093748;28;20032;-70
2022/07/10 03:39:11;;;;;;;5.25;1.83;;;23.30;60.10;;;;;;5093305;28;20032;-69
2022/07/10 03:42:15;;;;;;;3.85;1.65;;;23.30;60.10;;;;;;5093655;28;20174;-68
2022/07/10 03:45:19;;;;;;;2.75;1.50;;;23.20;60.50;;;;;;5093373;28;20051;-69
2022/07/10 03:48:23;;;;;;;3.80;1.70;;;23.10;60.90;;;;;;5093471;28;20613;-69
2022/07/10 03:51:27;;;;;;;4.10;1.60;;;23.10;61.10;;;;;;5093037;28;20048;-68
2022/07/10 03:54:31;;;;;;;6.68;1.70;;;23.20;61.30;;;;;;5093622;28;20054;-69
2022/07/10 03:57:53;;;;;;;7.45;1.90;;;23.10;61.80;;;;;;5092402;28;20150;-68
2022/07/10 04:00:57;;;;;;;5.15;1.80;;;23.00;62.20;;;;;;5093468;28;20043;-70
2022/07/10 04:04:01;;;;;;;4.10;1.50;;;23.00;62.50;;;;;;5080476;28;20103;-70
2022/07/10 04:07:05;;;;;;;7.63;1.90;;;23.00;62.70;;;;;;5093093;28;20048;-69
2022/07/10 04:10:09;;;;;;;9.73;1.73;;;23.10;62.60;;;;;;5092826;28;20541;-71
2022/07/10 04:13:13;;;;;;;3.80;1.88;;;23.20;62.40;;;;;;5092880;28;20047;-69
2022/07/10 04:16:17;;;;;;;3.35;1.95;;;23.30;62.30;;;;;;5092871;28;20731;-69
2022/07/10 04:19:21;;;;;;;6.30;2.33;;;23.40;62.20;;;;;;5092187;28;20032;-69
2022/07/10 04:22:28;;;;;;;7.07;2.92;;;23.50;63.00;;;;;;5092588;28;20040;-70
2022/07/10 04:25:32;;;;;;;11.40;2.28;;;23.60;62.60;;;;;;5092158;28;20032;-70
2022/07/10 04:28:36;;;;;;;8.65;2.15;;;23.70;62.40;;;;;;5092746;28;20051;-69
2022/07/10 04:31:40;;;;;;;8.90;2.90;;;23.80;62.10;;;;;;5092361;28;20039;-68
2022/07/10 04:34:44;;;;;;;5.63;2.65;;;23.90;61.80;;;;;;5092874;28;20032;-69
2022/07/10 04:37:48;;;;;;;9.43;2.65;;;24.00;62.10;;;;;;5092080;28;20043;-69
2022/07/10 04:40:55;;;;;;;13.05;2.10;;;24.00;61.80;;;;;;5092986;28;20047;-69
2022/07/10 04:43:59;;;;;;;6.63;2.20;;;24.00;61.90;;;;;;5091833;28;20047;-69
2022/07/10 04:47:05;;;;;;;7.82;2.20;;;24.00;61.90;;;;;;5092361;28;20059;-70
2022/07/10 04:50:09;;;;;;;5.85;2.13;;;23.90;62.80;;;;;;5091201;28;20051;-69
2022/07/10 04:53:13;;;;;;;15.73;2.85;;;23.90;63.50;;;;;;5092367;28;20036;-69
2022/07/10 04:56:17;;;;;;;4.97;2.58;;;23.80;63.90;;;;;;5092032;28;20506;-68
2022/07/10 04:59:21;;;;;;;11.23;2.90;;;23.80;63.80;;;;;;5092211;28;20051;-68
2022/07/10 05:02:25;;;;;;;9.93;2.13;;;24.20;63.20;;;;;;5091765;28;20043;-69
2022/07/10 05:05:32;;;;;;;5.43;2.38;;;24.60;62.50;;;;;;5092083;28;20476;-69
2022/07/10 05:08:36;;;;;;;8.77;1.90;;;24.80;62.10;;;;;;5091365;28;20048;-67
2022/07/10 05:11:40;;;;;;;11.35;1.80;;;25.30;61.40;;;;;;5091816;28;20055;-69
2022/07/10 05:14:44;;;;;;;12.63;2.20;;;25.80;60.60;;;;;;5091632;28;20440;-68
2022/07/10 05:17:48;;;;;;;4.50;1.90;;;26.10;60.00;;;;;;5091824;28;20055;-68
2022/07/10 05:20:52;;;;;;;5.78;1.40;;;26.30;59.70;;;;;;5091342;28;20515;-69
2022/07/10 05:23:56;;;;;;;7.95;1.85;;;26.40;59.10;;;;;;5091549;28;20040;-68
2022/07/10 05:27:00;;;;;;;9.23;1.10;;;26.50;59.50;;;;;;5091650;28;20044;-71
2022/07/10 05:30:04;;;;;;;9.05;2.05;;;26.50;58.10;;;;;;5091231;28;20110;-68
2022/07/10 05:33:08;;;;;;;7.75;1.20;;;26.60;58.00;;;;;;5091509;28;20043;-69
2022/07/10 05:36:12;;;;;;;3.63;1.10;;;26.70;57.60;;;;;;5091567;28;20035;-69
2022/07/10 05:39:16;;;;;;;1.17;0.80;;;26.80;57.50;;;;;;5090632;28;20047;-69
2022/07/10 05:42:20;;;;;;;3.17;0.95;;;27.00;56.10;;;;;;5091644;28;20054;-68
2022/07/10 05:45:24;;;;;;;2.95;1.30;;;27.00;56.30;;;;;;5091604;28;20055;-68
2022/07/10 05:48:28;;;;;;;6.05;1.27;;;27.20;56.10;;;;;;5091378;28;20126;-69
2022/07/10 05:51:32;;;;;;;4.47;1.20;;;27.20;56.10;;;;;;5090653;28;20047;-69
2022/07/10 05:54:36;;;;;;;5.13;1.30;;;27.20;54.80;;;;;;5091289;28;20050;-69
2022/07/10 05:57:40;;;;;;;5.80;1.52;;;27.20;55.00;;;;;;5090980;28;20039;-69
2022/07/10 06:00:45;;;;;;;1.92;0.82;;;27.30;55.40;;;;;;5090961;28;20062;-68
2022/07/10 06:03:50;;;;;;;9.32;1.30;;;27.00;55.00;;;;;;5091064;28;20035;-69
2022/07/10 06:06:54;;;;;;;3.35;1.10;;;27.10;55.10;;;;;;5090975;28;20059;-69
2022/07/10 06:09:58;;;;;;;3.13;0.90;;;27.40;54.50;;;;;;5091387;28;20043;-68
2022/07/10 06:13:02;;;;;;;7.93;1.60;;;27.50;54.30;;;;;;5091057;28;20067;-68
2022/07/10 06:16:06;;;;;;;3.03;1.10;;;27.60;54.00;;;;;;5089885;28;20043;-69
2022/07/10 06:19:10;;;;;;;9.38;1.02;;;27.60;53.40;;;;;;5090698;28;20047;-69
2022/07/10 06:22:32;;;;;;;5.63;1.08;;;27.80;53.50;;;;;;5095130;28;20518;-70
2022/07/10 06:25:36;;;;;;;6.18;1.20;;;28.20;52.30;;;;;;5095110;28;20529;-69
2022/07/10 06:28:40;;;;;;;3.22;1.55;;;28.20;51.50;;;;;;5093943;28;20047;-70
2022/07/10 06:31:44;;;;;;;4.38;1.30;;;28.20;52.20;;;;;;5094797;28;20495;-69
2022/07/10 06:34:48;;;;;;;5.32;1.40;;;28.30;51.80;;;;;;5094253;28;20047;-68
2022/07/10 06:37:51;;;;;;;5.97;1.10;;;28.50;50.60;;;;;;5093557;28;20039;-69
2022/07/10 06:40:56;;;;;;;2.90;1.33;;;28.60;50.20;;;;;;5094311;28;20042;-69
2022/07/10 06:44:00;;;;;;;3.10;1.23;;;28.70;50.80;;;;;;5093924;28;20407;-68
2022/07/10 06:50:30;;;;;;;2.38;1.30;;;29.00;49.50;;;;;;5094146;28;20608;-67
2022/07/10 06:53:34;;;;;;;4.30;1.42;;;29.10;48.40;;;;;;5094265;28;20047;-69
2022/07/10 06:56:38;;;;;;;2.92;1.58;;;28.70;49.00;;;;;;5094472;28;20051;-69
2022/07/10 06:59:42;;;;;;;4.90;1.38;;;28.90;49.00;;;;;;5094405;28;20043;-70
2022/07/10 07:02:46;;;;;;;3.85;1.35;;;29.00;49.70;;;;;;5094215;28;20047;-69
2022/07/10 07:05:50;;;;;;;2.85;1.17;;;29.30;49.00;;;;;;5094730;28;20031;-68
2022/07/10 07:08:53;;;;;;;4.25;1.33;;;29.60;47.80;;;;;;5094259;28;20055;-69
2022/07/10 07:11:58;;;;;;;7.47;1.35;;;29.50;48.30;;;;;;5093221;28;20047;-67
2022/07/10 07:15:02;;;;;;;4.40;1.45;;;29.40;48.10;;;;;;5093471;28;20074;-69
2022/07/10 07:18:12;;;;;;;2.05;1.50;;;29.40;48.50;;;;;;5094349;28;20043;-69
2022/07/10 07:24:38;;;;;;;5.60;2.67;;;29.30;49.70;;;;;;5093761;28;20063;-69
2022/07/10 07:27:42;;;;;;;2.97;1.50;;;29.20;50.30;;;;;;5093531;28;20054;-69
2022/07/10 07:30:47;;;;;;;6.55;1.60;;;29.30;50.00;;;;;;5093513;28;20047;-69
2022/07/10 07:33:51;;;;;;;7.85;1.65;;;29.50;50.70;;;;;;5093887;28;20047;-70
2022/07/10 07:36:56;;;;;;;10.50;2.40;;;29.40;49.90;;;;;;5093409;28;20411;-68
2022/07/10 07:40:00;;;;;;;7.03;2.00;;;29.30;50.60;;;;;;5093274;28;20043;-69
2022/07/10 07:43:04;;;;;;;5.32;1.60;;;29.40;49.90;;;;;;5093444;28;20512;-70
2022/07/10 07:46:09;;;;;;;4.85;1.40;;;29.50;50.80;;;;;;5093282;28;20506;-68
2022/07/10 07:49:13;;;;;;;7.90;1.33;;;29.40;50.70;;;;;;5092328;28;20504;-68
2022/07/10 07:52:17;;;;;;;6.50;1.20;;;29.30;51.20;;;;;;5093023;28;20051;-69
2022/07/10 07:55:22;;;;;;;3.90;1.63;;;29.00;51.40;;;;;;5093397;28;20051;-69
2022/07/10 07:58:26;;;;;;;3.65;1.30;;;29.30;50.70;;;;;;5093165;28;20043;-69
2022/07/10 08:01:31;;;;;;;7.00;1.63;;;29.90;50.50;;;;;;5092799;28;20438;-69
2022/07/10 08:04:35;;;;;;;5.10;1.90;;;30.30;49.50;;;;;;5092925;28;20043;-70
2022/07/10 08:07:50;;;;;;;6.70;2.15;;;30.50;49.90;;;;;;5093000;28;20067;-70
2022/07/10 08:10:54;;;;;;;2.15;1.30;;;30.70;49.70;;;;;;5092806;28;20047;-70
2022/07/10 08:13:58;;;;;;;4.53;1.38;;;30.60;51.40;;;;;;5093100;28;20043;-69
2022/07/10 08:17:02;;;;;;;4.60;1.23;;;30.20;52.10;;;;;;5092663;28;20400;-69
2022/07/10 08:20:11;;;;;;;3.83;1.00;;;30.00;51.90;;;;;;5092535;28;20051;-70
2022/07/10 08:23:15;;;;;;;1.95;0.88;;;30.20;52.60;;;;;;5092937;28;20039;-69
2022/07/10 08:26:19;;;;;;;5.85;1.30;;;29.70;52.70;;;;;;5092524;28;20051;-69
2022/07/10 08:29:23;;;;;;;4.22;1.60;;;29.30;53.40;;;;;;5092418;28;20047;-69
2022/07/10 08:32:27;;;;;;;6.00;1.23;;;29.10;53.70;;;;;;5092735;28;20098;-69
2022/07/10 08:35:31;;;;;;;6.53;1.75;;;29.20;52.90;;;;;;5092399;28;20051;-70
2022/07/10 08:38:35;;;;;;;4.60;1.60;;;29.70;52.50;;;;;;5092570;28;20055;-69
2022/07/10 08:41:39;;;;;;;6.38;2.03;;;30.40;51.10;;;;;;5092853;28;20043;-70
2022/07/10 08:44:43;;;;;;;6.05;1.38;;;30.20;51.80;;;;;;5091290;28;20039;-69
2022/07/10 08:47:49;;;;;;;3.90;1.75;;;29.70;52.00;;;;;;5092959;28;20059;-69
2022/07/10 08:50:54;;;;;;;4.18;2.00;;;29.70;52.10;;;;;;5091878;28;20059;-69
2022/07/10 08:54:00;;;;;;;1.90;1.38;;;29.80;52.20;;;;;;5092135;28;20043;-70
2022/07/10 08:57:05;;;;;;;5.47;1.10;;;29.90;52.90;;;;;;5092305;28;20411;-69
2022/07/10 09:00:09;;;;;;;3.10;1.42;;;30.10;50.60;;;;;;5094043;28;20403;-68
2022/07/10 09:03:13;;;;;;;12.70;1.38;;;30.20;50.80;;;;;;5092175;28;20043;-68
2022/07/10 09:06:17;;;;;;;2.17;1.00;;;30.30;51.50;;;;;;5091873;28;20050;-70
2022/07/10 09:09:24;;;;;;;4.28;1.20;;;30.40;51.00;;;;;;5091707;28;20059;-69
2022/07/10 09:12:28;;;;;;;1.40;0.95;;;30.70;50.70;;;;;;5091556;28;20384;-69
2022/07/10 09:15:32;;;;;;;15.32;1.50;;;30.60;50.30;;;;;;5091650;28;20043;-68
2022/07/10 09:18:36;;;;;;;4.57;1.25;;;30.70;49.80;;;;;;5091516;28;20494;-69
2022/07/10 09:21:40;;;;;;;4.15;1.50;;;30.60;50.00;;;;;;5091665;28;20043;-69
2022/07/10 09:24:45;;;;;;;5.28;1.20;;;30.50;50.00;;;;;;5091873;28;20046;-69
2022/07/10 09:27:54;;;;;;;4.18;1.40;;;30.80;50.10;;;;;;5092852;28;20055;-69
2022/07/10 09:30:58;;;;;;;1.77;1.05;;;30.70;49.60;;;;;;5092721;28;20047;-68
2022/07/10 09:34:02;;;;;;;1.77;1.00;;;30.80;49.60;;;;;;5090802;28;20050;-68
2022/07/10 09:37:21;;;;;;;4.13;1.42;;;30.90;49.70;;;;;;5091637;28;20055;-69
2022/07/10 09:40:27;;;;;;;3.38;1.38;;;30.20;49.60;;;;;;5090842;28;20042;-69
2022/07/10 09:44:00;;;;;;;4.32;1.60;;;29.80;50.60;;;;;;5091797;28;20039;-69
2022/07/10 09:47:04;;;;;;;5.13;1.25;;;29.90;51.30;;;;;;5091627;28;20031;-69
2022/07/10 09:50:29;;;;;;;6.90;1.40;;;30.20;50.70;;;;;;5091339;28;20542;-68
2022/07/10 09:53:43;;;;;;;6.88;1.25;;;30.60;50.80;;;;;;5091420;28;20494;-67
2022/07/10 09:56:51;;;;;;;2.63;1.30;;;30.50;50.20;;;;;;5091503;28;20047;-69
2022/07/10 09:59:56;;;;;;;3.00;1.00;;;30.10;50.00;;;;;;5091292;28;20043;-70
2022/07/10 10:03:06;;;;;;;3.65;1.20;;;29.90;50.20;;;;;;5091514;28;20070;-70
2022/07/10 10:06:18;;;;;;;2.35;1.30;;;30.10;48.80;;;;;;5091376;28;20043;-69
2022/07/10 10:09:30;;;;;;;3.38;1.27;;;30.40;50.10;;;;;;5091316;28;20051;-70
2022/07/10 10:12:42;;;;;;;2.60;1.00;;;30.40;48.80;;;;;;5090774;28;20051;-70
2022/07/10 10:15:48;;;;;;;1.65;0.80;;;30.50;48.80;;;;;;5090971;28;20063;-69
2022/07/10 10:22:19;;;;;;;2.67;1.05;;;30.60;49.40;;;;;;5091138;28;20379;-68
2022/07/10 10:25:24;;;;;;;3.75;1.13;;;30.70;49.10;;;;;;5091167;28;20055;-69
2022/07/10 10:28:33;;;;;;;3.60;1.10;;;30.70;48.50;;;;;;5090993;28;20051;-69
2022/07/10 10:31:38;;;;;;;4.72;2.50;;;30.60;48.70;;;;;;5089911;28;20403;-69
2022/07/10 10:34:44;;;;;;;4.57;1.20;;;30.20;48.60;;;;;;5091016;28;20047;-69
2022/07/10 10:37:52;;;;;;;3.17;1.27;;;29.90;49.10;;;;;;5090919;28;20051;-69
2022/07/10 10:41:22;;;;;;;6.25;1.17;;;30.10;49.60;;;;;;5090910;28;20528;-68
2022/07/10 10:44:31;;;;;;;4.95;2.53;;;30.20;48.20;;;;;;5090649;28;20037;-69
2022/07/10 10:48:01;;;;;;;3.05;1.40;;;30.20;48.40;;;;;;5090740;28;20046;-69
2022/07/10 10:51:06;;;;;;;6.30;1.10;;;30.30;48.60;;;;;;5090484;28;20047;-70
2022/07/10 10:54:10;;;;;;;2.13;1.30;;;30.20;48.40;;;;;;5090666;28;20043;-69
2022/07/10 10:57:15;;;;;;;2.45;1.20;;;30.30;47.90;;;;;;5090768;28;20047;-69
2022/07/10 11:00:37;;;;;;;2.80;1.23;;;29.80;48.00;;;;;;5089748;28;20044;-69
2022/07/10 11:04:04;;;;;;;2.67;1.13;;;29.80;48.20;;;;;;5090469;28;20043;-71
2022/07/10 11:07:09;;;;;;;2.92;0.88;;;29.90;48.00;;;;;;5091907;28;20223;-70
2022/07/10 11:10:26;;;;;;;2.97;2.03;;;30.20;48.20;;;;;;5093756;28;20043;-68
2022/07/10 11:13:32;;;;;;;3.25;1.10;;;30.60;48.30;;;;;;5092992;28;20043;-68
2022/07/10 11:16:45;;;;;;;3.55;1.17;;;30.70;47.90;;;;;;5092820;28;20426;-68
2022/07/10 11:19:53;;;;;;;4.35;1.50;;;30.60;47.50;;;;;;5094044;28;20047;-68
2022/07/10 11:23:17;;;;;;;3.20;1.25;;;30.70;47.70;;;;;;5092832;28;20047;-71
2022/07/10 11:26:45;;;;;;;2.88;1.42;;;30.80;47.40;;;;;;5092961;28;20039;-69
2022/07/10 11:29:57;;;;;;;1.98;1.08;;;30.70;46.50;;;;;;5093508;28;20058;-67
2022/07/10 11:33:08;;;;;;;4.72;1.55;;;30.70;47.00;;;;;;5093959;28;20035;-69
2022/07/10 11:36:14;;;;;;;3.88;1.55;;;30.70;46.70;;;;;;5092481;28;20506;-69
2022/07/10 11:39:18;;;;;;;5.55;1.50;;;30.80;47.30;;;;;;5093355;28;20039;-68
2022/07/10 11:42:22;;;;;;;2.40;1.08;;;30.60;46.60;;;;;;5093350;28;20051;-69
2022/07/10 11:45:28;;;;;;;3.72;1.27;;;30.30;47.40;;;;;;5093230;28;20418;-69
2022/07/10 11:48:39;;;;;;;4.15;1.23;;;30.20;47.00;;;;;;5093250;28;20055;-68
2022/07/10 11:51:44;;;;;;;2.15;1.13;;;30.20;47.30;;;;;;5093088;28;20506;-69
2022/07/10 11:54:49;;;;;;;4.82;1.20;;;30.00;46.60;;;;;;5092351;28;20495;-68
2022/07/10 11:57:52;;;;;;;1.35;1.00;;;30.00;46.90;;;;;;5092252;28;20039;-68
2022/07/10 12:01:09;;;;;;;5.40;2.33;;;30.20;47.10;;;;;;5093346;28;20505;-70
2022/07/10 12:04:15;;;;;;;2.30;1.17;;;30.30;44.90;;;;;;5092149;28;20051;-69
2022/07/10 12:07:20;;;;;;;3.95;1.17;;;30.30;44.00;;;;;;5093035;28;20043;-69
2022/07/10 12:10:33;;;;;;;1.52;0.80;;;30.40;44.40;;;;;;5092241;28;20051;-69
2022/07/10 12:13:38;;;;;;;3.30;1.20;;;30.50;45.20;;;;;;5092743;28;20043;-68
2022/07/10 12:16:43;;;;;;;3.50;1.70;;;30.50;44.80;;;;;;5093161;28;20042;-68
2022/07/10 12:19:50;;;;;;;5.35;1.30;;;30.50;45.70;;;;;;5091858;28;20047;-68
2022/07/10 12:22:55;;;;;;;2.00;1.15;;;30.40;45.40;;;;;;5093228;28;20396;-69
2022/07/10 12:25:59;;;;;;;9.48;1.30;;;30.40;45.60;;;;;;5092695;28;20494;-69
2022/07/10 12:29:04;;;;;;;1.50;0.90;;;30.10;44.40;;;;;;5092313;28;20058;-68
2022/07/10 12:32:08;;;;;;;3.60;1.23;;;30.00;45.70;;;;;;5092773;28;20043;-68
2022/07/10 12:35:15;;;;;;;11.98;1.23;;;30.10;46.00;;;;;;5091813;28;20051;-68
2022/07/10 12:38:33;;;;;;;2.75;1.05;;;30.20;45.90;;;;;;5092684;28;20051;-69
2022/07/10 12:42:05;;;;;;;2.78;1.40;;;30.20;46.30;;;;;;5091388;28;20043;-69
2022/07/10 12:45:14;;;;;;;1.95;1.00;;;30.30;46.10;;;;;;5092316;28;20050;-68
2022/07/10 12:48:25;;;;;;;3.25;1.00;;;30.30;45.70;;;;;;5091934;28;20055;-69
2022/07/10 12:51:47;;;;;;;2.78;1.00;;;30.30;46.30;;;;;;5090972;28;20051;-69
2022/07/10 12:55:21;;;;;;;2.28;1.00;;;30.40;44.70;;;;;;5091976;28;20039;-69
2022/07/10 12:58:25;;;;;;;2.13;1.02;;;30.50;44.90;;;;;;5091044;28;20055;-69
2022/07/10 13:01:49;;;;;;;1.67;0.93;;;30.40;44.90;;;;;;5092146;28;20392;-68
2022/07/10 13:04:57;;;;;;;3.40;1.00;;;30.40;45.10;;;;;;5091873;28;20502;-68
2022/07/10 13:08:19;;;;;;;2.20;1.30;;;30.40;45.00;;;;;;5091755;28;20059;-69
2022/07/10 13:11:22;;;;;;;;;;;30.50;45.40;;;;;;5092171;28;20047;-69
2022/07/10 13:14:26;;;;;;;2.47;1.30;;;30.50;45.50;;;;;;5091769;28;19916;-69
2022/07/10 13:17:31;;;;;;;2.97;1.00;;;30.50;45.20;;;;;;5091645;28;20059;-68
2022/07/10 13:20:38;;;;;;;1.40;0.90;;;30.20;45.30;;;;;;5079204;28;20051;-69
2022/07/10 13:23:42;;;;;;;3.03;1.02;;;30.10;45.30;;;;;;5091578;28;20043;-69
2022/07/10 13:26:46;;;;;;;1.98;0.90;;;30.10;45.60;;;;;;5091347;28;20046;-68
2022/07/10 13:29:50;;;;;;;4.55;1.02;;;30.10;45.50;;;;;;5090192;28;20051;-69
2022/07/10 13:32:54;;;;;;;2.88;1.00;;;30.10;45.30;;;;;;5091624;28;20525;-69
2022/07/10 13:36:03;;;;;;;2.45;0.93;;;30.20;46.30;;;;;;5090537;28;20051;-68
2022/07/10 13:39:07;;;;;;;3.85;1.08;;;30.30;45.50;;;;;;5090817;28;20043;-68
2022/07/10 13:42:11;;;;;;;1.98;0.85;;;30.30;44.70;;;;;;5090949;28;20043;-68
2022/07/10 13:45:15;;;;;;;3.17;0.98;;;30.30;44.50;;;;;;5091028;28;20043;-69
2022/07/10 13:48:19;;;;;;;3.25;1.10;;;30.30;44.00;;;;;;5090834;28;20059;-68
2022/07/10 13:51:22;;;;;;;2.33;1.00;;;30.40;43.80;;;;;;5090976;28;20426;-68
2022/07/10 13:54:26;;;;;;;1.40;0.90;;;30.50;44.60;;;;;;5091065;28;20498;-68
2022/07/10 13:57:31;;;;;;;6.03;1.05;;;30.60;45.00;;;;;;5091327;28;20068;-69
2022/07/10 14:00:35;;;;;;;2.15;1.20;;;30.70;44.90;;;;;;5090902;28;20054;-68
2022/07/10 14:03:39;;;;;;;1.05;0.88;;;30.60;46.60;;;;;;5091292;28;20039;-69
2022/07/10 14:06:43;;;;;;;6.60;1.15;;;30.40;46.00;;;;;;5090943;28;20498;-68
2022/07/10 14:09:47;;;;;;;1.48;1.13;;;30.30;46.70;;;;;;5090870;28;20503;-68
2022/07/10 14:12:54;;;;;;;14.85;2.30;;;30.40;47.20;;;;;;5091236;28;20043;-68
2022/07/10 14:15:58;;;;;;;2.53;1.25;;;30.50;48.00;;;;;;5090724;28;20435;-70
2022/07/10 14:19:02;;;;;;;3.65;1.13;;;30.50;49.00;;;;;;5090940;28;20055;-69
2022/07/10 14:22:07;;;;;;;4.00;1.38;;;30.30;49.40;;;;;;5090785;28;20051;-69
2022/07/10 14:25:11;;;;;;;3.28;1.00;;;30.40;50.30;;;;;;5090669;28;20403;-69
2022/07/10 14:28:16;;;;;;;2.97;1.20;;;30.20;50.50;;;;;;5090661;28;20055;-69
2022/07/10 14:31:19;;;;;;;3.42;1.05;;;30.20;50.30;;;;;;5090607;28;20039;-69
2022/07/10 14:34:24;;;;;;;1.90;0.90;;;30.20;49.70;;;;;;5090925;28;20051;-69
2022/07/10 14:37:28;;;;;;;2.65;1.23;;;30.00;50.20;;;;;;5090564;28;20495;-68
2022/07/10 14:40:33;;;;;;;1.75;0.95;;;30.00;50.90;;;;;;5090581;28;20495;-69
2022/07/10 14:43:37;;;;;;;3.70;1.20;;;30.10;50.60;;;;;;5094311;28;20039;-70
2022/07/10 14:46:42;;;;;;;2.72;1.10;;;30.20;50.70;;;;;;5093565;28;20043;-69
2022/07/10 14:49:46;;;;;;;1.85;0.90;;;30.20;50.70;;;;;;5093885;28;20059;-69
2022/07/10 14:52:51;;;;;;;3.42;0.98;;;30.20;50.00;;;;;;5093779;28;20055;-72
2022/07/10 14:55:55;;;;;;;4.10;1.17;;;30.20;49.90;;;;;;5094418;28;20071;-68
2022/07/10 14:58:59;;;;;;;1.80;0.90;;;30.20;50.50;;;;;;5094001;28;20494;-68
2022/07/10 15:02:03;;;;;;;2.70;1.00;;;30.10;50.30;;;;;;5094032;28;20047;-69
2022/07/10 15:05:08;;;;;;;1.23;1.08;;;30.00;50.60;;;;;;5094262;28;20046;-70
2022/07/10 15:08:12;;;;;;;1.88;1.08;;;30.00;50.60;;;;;;5094083;28;20047;-68
2022/07/10 15:11:18;;;;;;;3.38;1.10;;;30.10;50.40;;;;;;5093270;28;20043;-69
2022/07/10 15:14:22;;;;;;;2.35;0.90;;;30.10;49.60;;;;;;5092877;28;20039;-68
2022/07/10 15:17:26;;;;;;;2.28;1.05;;;30.10;50.40;;;;;;5093549;28;20051;-69
2022/07/10 15:20:30;;;;;;;5.90;1.00;;;30.00;50.80;;;;;;5092949;28;20051;-69
2022/07/10 15:23:34;;;;;;;5.57;1.20;;;30.00;51.10;;;;;;5093583;28;20035;-69
2022/07/10 15:26:38;;;;;;;1.70;1.00;;;30.00;51.40;;;;;;5093273;28;20055;-69
2022/07/10 15:29:42;;;;;;;2.95;0.90;;;30.00;51.80;;;;;;5093100;28;20070;-69
2022/07/10 15:32:47;;;;;;;1.90;0.95;;;29.90;51.70;;;;;;5093349;28;20040;-70
2022/07/10 15:35:51;;;;;;;2.22;0.90;;;29.80;52.00;;;;;;5093294;28;20039;-69
2022/07/10 15:38:55;;;;;;;1.60;1.10;;;29.80;52.00;;;;;;5093255;28;20043;-69
2022/07/10 15:41:59;;;;;;;3.08;1.20;;;29.80;52.20;;;;;;5093184;28;20055;-69
2022/07/10 15:45:04;;;;;;;4.13;0.80;;;29.80;52.50;;;;;;5092920;28;20372;-69
2022/07/10 15:48:08;;;;;;;2.95;1.20;;;29.80;52.80;;;;;;5092882;28;20039;-69
2022/07/10 15:51:14;;;;;;;4.43;2.00;;;29.80;52.80;;;;;;5092843;28;20067;-69
2022/07/10 15:54:18;;;;;;;4.60;1.85;;;29.90;53.60;;;;;;5092665;28;20514;-69
2022/07/10 15:57:22;;;;;;;2.53;1.40;;;29.90;54.80;;;;;;5092590;28;20132;-68
2022/07/10 16:00:27;;;;;;;6.53;1.38;;;29.90;55.30;;;;;;5092068;28;20043;-69
2022/07/10 16:03:30;;;;;;;5.50;1.50;;;30.00;55.40;;;;;;5092975;28;20526;-69
2022/07/10 16:06:34;;;;;;;5.60;1.88;;;30.00;55.70;;;;;;5092869;28;20039;-69
2022/07/10 16:09:41;;;;;;;4.72;1.40;;;30.00;55.80;;;;;;5092610;28;20403;-70
2022/07/10 16:12:46;;;;;;;2.65;1.50;;;30.00;55.60;;;;;;5092480;28;20047;-69
2022/07/10 16:15:50;;;;;;;4.35;1.40;;;30.10;55.60;;;;;;5092708;28;20376;-69
2022/07/10 16:18:54;;;;;;;2.63;1.20;;;30.10;55.30;;;;;;5092147;28;20035;-70